createdAt,value
2018-07-06T00:01:04.383Z,7.97
2018-07-06T00:03:44.189Z,6.67
2018-07-06T00:06:23.764Z,7.37
2018-07-06T00:09:03.460Z,7.53
2018-07-06T00:11:43.142Z,7.73
2018-07-06T00:14:22.778Z,7.70
2018-07-06T00:17:02.593Z,7.73
2018-07-06T00:19:42.216Z,7.80
2018-07-06T00:22:21.705Z,9.23
2018-07-06T00:25:01.386Z,7.90
2018-07-06T00:27:40.839Z,7.10
2018-07-06T00:30:20.411Z,8.00
2018-07-06T00:33:00.062Z,8.30
2018-07-06T00:35:39.603Z,9.33
2018-07-06T00:38:19.042Z,8.53
2018-07-06T00:40:58.602Z,8.40
2018-07-06T00:43:38.032Z,9.30
2018-07-06T00:46:17.628Z,8.00
2018-07-06T00:48:57.175Z,8.03
2018-07-06T00:51:36.683Z,7.77
2018-07-06T00:54:16.198Z,9.13
2018-07-06T00:56:55.722Z,9.20
2018-07-06T00:59:35.178Z,8.37
2018-07-06T01:02:14.734Z,7.90
2018-07-06T01:04:54.182Z,8.83
2018-07-06T01:07:33.808Z,8.60
2018-07-06T01:10:13.360Z,8.53
2018-07-06T01:12:58.417Z,8.47
2018-07-06T01:15:38.015Z,8.93
2018-07-06T01:18:17.945Z,8.70
2018-07-06T01:20:57.418Z,8.87
2018-07-06T01:23:31.154Z,7.40
2018-07-06T01:26:10.722Z,9.17
2018-07-06T01:28:50.541Z,8.37
2018-07-06T01:31:30.071Z,9.03
2018-07-06T01:34:09.808Z,8.43
2018-07-06T01:36:49.438Z,8.33
2018-07-06T01:39:29.772Z,8.97
2018-07-06T01:42:09.441Z,9.90
2018-07-06T01:44:49.015Z,9.10
2018-07-06T01:47:28.715Z,9.27
2018-07-06T01:50:08.165Z,9.00
2018-07-06T01:52:47.590Z,9.73
2018-07-06T01:55:27.410Z,8.37
2018-07-06T01:58:07.030Z,7.63
2018-07-06T02:00:46.724Z,9.13
2018-07-06T02:03:26.258Z,9.30
2018-07-06T02:06:05.769Z,9.50
2018-07-06T02:08:45.234Z,8.47
2018-07-06T02:11:24.894Z,9.73
2018-07-06T02:14:04.494Z,9.10
2018-07-06T02:16:43.937Z,9.10
2018-07-06T02:19:23.411Z,9.73
2018-07-06T02:22:03.011Z,8.73
2018-07-06T02:24:42.582Z,8.97
2018-07-06T02:27:22.301Z,10.03
2018-07-06T02:30:01.916Z,7.70
2018-07-06T02:32:41.546Z,10.13
2018-07-06T02:35:21.038Z,9.27
2018-07-06T02:38:00.586Z,10.53
2018-07-06T02:40:40.008Z,10.20
2018-07-06T02:43:19.394Z,9.20
2018-07-06T02:45:58.853Z,11.07
2018-07-06T02:48:38.518Z,10.37
2018-07-06T02:51:18.090Z,9.93
2018-07-06T02:53:57.623Z,10.27
2018-07-06T02:56:37.230Z,9.07
2018-07-06T02:59:10.664Z,8.17
2018-07-06T03:01:50.238Z,8.27
2018-07-06T03:04:29.805Z,8.27
2018-07-06T03:07:09.370Z,8.37
2018-07-06T03:09:48.927Z,8.90
2018-07-06T03:12:28.693Z,9.90
2018-07-06T03:15:08.074Z,9.07
2018-07-06T03:17:47.647Z,9.73
2018-07-06T03:20:27.221Z,9.37
2018-07-06T03:23:06.791Z,9.63
2018-07-06T03:25:46.443Z,9.00
2018-07-06T03:28:26.268Z,7.90
2018-07-06T03:31:05.574Z,8.70
2018-07-06T03:33:45.224Z,9.43
2018-07-06T03:36:24.726Z,9.10
2018-07-06T03:39:04.796Z,9.00
2018-07-06T03:41:44.176Z,9.40
2018-07-06T03:44:23.891Z,8.90
2018-07-06T03:47:03.493Z,9.43
2018-07-06T03:49:43.151Z,8.40
2018-07-06T03:52:22.653Z,7.43
2018-07-06T03:55:02.377Z,7.93
2018-07-06T03:57:42.092Z,7.27
2018-07-06T04:00:21.705Z,6.90
2018-07-06T04:03:01.417Z,7.03
2018-07-06T04:05:41.051Z,6.27
2018-07-06T04:08:20.668Z,6.97
2018-07-06T04:11:00.328Z,7.80
2018-07-06T04:13:40.173Z,8.97
2018-07-06T04:16:19.650Z,8.30
2018-07-06T04:19:13.834Z,8.00
2018-07-06T04:21:54.394Z,7.87
2018-07-06T04:24:33.872Z,8.27
2018-07-06T04:27:13.865Z,8.93
2018-07-06T04:29:53.290Z,7.70
2018-07-06T04:32:33.148Z,7.77
2018-07-06T04:35:12.995Z,7.00
2018-07-06T04:37:52.642Z,7.87
2018-07-06T04:40:32.292Z,8.00
2018-07-06T04:43:11.900Z,7.07
2018-07-06T04:45:51.556Z,6.20
2018-07-06T04:48:31.096Z,7.27
2018-07-06T04:51:10.591Z,6.20
2018-07-06T04:53:51.034Z,6.23
2018-07-06T04:56:31.303Z,6.23
2018-07-06T04:59:11.520Z,6.93
2018-07-06T05:05:07.070Z,6.77
2018-07-06T05:07:48.320Z,6.00
2018-07-06T05:10:27.842Z,6.20
2018-07-06T05:13:07.297Z,6.40
2018-07-06T05:15:46.856Z,6.53
2018-07-06T05:18:26.379Z,6.07
2018-07-06T05:21:06.026Z,6.90
2018-07-06T05:23:45.447Z,8.17
2018-07-06T05:26:19.232Z,7.07
2018-07-06T05:28:58.591Z,6.47
2018-07-06T05:31:38.935Z,8.70
2018-07-06T05:34:18.588Z,8.23
2018-07-06T05:36:58.348Z,7.73
2018-07-06T05:39:37.817Z,8.50
2018-07-06T05:42:17.504Z,8.63
2018-07-06T05:44:57.046Z,8.03
2018-07-06T05:47:36.596Z,6.67
2018-07-06T05:50:16.091Z,8.10
2018-07-06T05:52:55.768Z,7.80
2018-07-06T05:55:35.374Z,7.63
2018-07-06T05:58:15.196Z,7.63
2018-07-06T06:00:54.814Z,7.67
2018-07-06T06:03:34.940Z,7.57
2018-07-06T06:06:14.436Z,7.17
2018-07-06T06:08:42.305Z,7.47
2018-07-06T06:11:10.460Z,7.47
2018-07-06T06:13:40.464Z,5.93
2018-07-06T06:16:09.162Z,6.07
2018-07-06T06:18:37.417Z,5.97
2018-07-06T06:21:06.295Z,6.03
2018-07-06T06:23:34.507Z,6.33
2018-07-06T06:26:02.676Z,5.40
2018-07-06T06:28:30.844Z,5.07
2018-07-06T06:30:59.244Z,5.60
2018-07-06T06:33:27.508Z,5.60
2018-07-06T06:35:55.566Z,5.07
2018-07-06T06:38:23.714Z,5.43
2018-07-06T06:40:51.899Z,4.90
2018-07-06T06:43:20.066Z,4.70
2018-07-06T06:45:48.249Z,4.80
2018-07-06T06:48:16.578Z,4.90
2018-07-06T06:50:44.811Z,4.40
2018-07-06T06:53:12.942Z,4.60
2018-07-06T06:55:41.118Z,4.90
2018-07-06T06:58:09.275Z,5.00
2018-07-06T07:00:37.408Z,5.13
2018-07-06T07:03:05.570Z,5.23
2018-07-06T07:05:33.728Z,4.57
2018-07-06T07:08:01.902Z,4.87
2018-07-06T07:10:30.064Z,4.67
2018-07-06T07:12:58.211Z,4.83
2018-07-06T07:15:26.351Z,4.90
2018-07-06T07:17:54.515Z,4.93
2018-07-06T07:20:22.446Z,4.80
2018-07-06T07:22:50.659Z,4.97
2018-07-06T07:25:18.593Z,5.00
2018-07-06T07:27:46.803Z,4.50
2018-07-06T07:30:14.765Z,5.03
2018-07-06T07:32:42.887Z,4.97
2018-07-06T07:35:11.032Z,4.70
2018-07-06T07:37:39.185Z,4.90
2018-07-06T07:40:07.134Z,6.13
2018-07-06T07:42:35.283Z,5.77
2018-07-06T07:45:03.539Z,6.17
2018-07-06T07:47:31.719Z,4.90
2018-07-06T07:49:59.871Z,5.70
2018-07-06T07:52:39.473Z,5.20
2018-07-06T07:55:07.685Z,5.00
2018-07-06T07:57:35.810Z,5.97
2018-07-06T08:00:03.976Z,6.33
2018-07-06T08:02:32.204Z,6.50
2018-07-06T08:05:00.344Z,6.13
2018-07-06T08:07:28.716Z,5.67
2018-07-06T08:09:57.195Z,5.07
2018-07-06T08:12:25.452Z,6.10
2018-07-06T08:14:53.633Z,5.97
2018-07-06T08:17:21.535Z,6.80
2018-07-06T08:19:49.776Z,6.10
2018-07-06T08:22:17.945Z,5.80
2018-07-06T08:24:46.094Z,5.23
2018-07-06T08:27:14.254Z,5.27
2018-07-06T08:29:42.421Z,5.10
2018-07-06T08:32:10.565Z,5.07
2018-07-06T08:34:50.313Z,5.00
2018-07-06T08:37:35.324Z,5.53
2018-07-06T08:40:03.260Z,4.67
2018-07-06T08:42:32.791Z,5.27
2018-07-06T08:45:01.507Z,5.20
2018-07-06T08:47:30.123Z,4.87
2018-07-06T08:49:58.948Z,5.47
2018-07-06T08:52:27.329Z,5.70
2018-07-06T08:54:55.512Z,6.57
2018-07-06T08:57:24.683Z,6.10
2018-07-06T08:59:53.367Z,6.77
2018-07-06T09:02:21.851Z,6.57
2018-07-06T09:04:50.921Z,7.20
2018-07-06T09:07:19.103Z,7.00
2018-07-06T09:09:47.456Z,7.50
2018-07-06T09:12:15.627Z,8.50
2018-07-06T09:14:43.781Z,7.00
2018-07-06T09:17:13.952Z,8.83
2018-07-06T09:19:42.735Z,8.73
2018-07-06T09:22:11.287Z,9.23
2018-07-06T09:24:39.502Z,10.03
2018-07-06T09:27:07.790Z,9.93
2018-07-06T09:29:36.006Z,9.93
2018-07-06T09:32:04.167Z,8.77
2018-07-06T09:34:32.353Z,8.17
2018-07-06T09:37:00.577Z,9.93
2018-07-06T09:39:28.854Z,8.83
2018-07-06T09:41:57.026Z,9.90
2018-07-06T09:44:25.365Z,10.83
2018-07-06T09:46:53.555Z,11.40
2018-07-06T09:49:21.734Z,10.77
2018-07-06T09:51:49.972Z,10.37
2018-07-06T09:54:18.180Z,11.70
2018-07-06T09:56:46.444Z,13.40
2018-07-06T09:59:14.632Z,12.60
2018-07-06T10:01:42.856Z,14.70
2018-07-06T10:04:11.077Z,15.60
2018-07-06T10:06:39.240Z,13.47
2018-07-06T10:09:08.201Z,14.07
2018-07-06T10:11:36.203Z,14.73
2018-07-06T10:14:04.431Z,13.87
2018-07-06T10:16:32.652Z,15.30
2018-07-06T10:19:00.842Z,16.43
2018-07-06T10:21:29.012Z,14.50
2018-07-06T10:23:57.375Z,16.43
2018-07-06T10:26:25.725Z,16.10
2018-07-06T10:30:06.325Z,18.50
2018-07-06T10:32:34.517Z,18.63
2018-07-06T10:35:02.733Z,19.77
2018-07-06T10:37:31.014Z,17.50
2018-07-06T10:39:59.341Z,17.97
2018-07-06T10:42:27.518Z,19.90
2018-07-06T10:44:55.710Z,19.70
2018-07-06T10:47:23.907Z,20.35
2018-07-06T10:49:52.184Z,22.20
2018-07-06T10:52:20.419Z,23.07
2018-07-06T10:54:48.751Z,20.15
2018-07-06T10:57:16.967Z,22.45
2018-07-06T10:59:45.181Z,23.92
2018-07-06T11:02:13.422Z,22.15
2018-07-06T11:04:41.612Z,22.55
2018-07-06T11:07:09.850Z,22.25
2018-07-06T11:09:38.064Z,22.20
2018-07-06T11:12:06.299Z,25.20
2018-07-06T11:14:34.497Z,25.40
2018-07-06T11:17:02.743Z,23.83
2018-07-06T11:19:30.911Z,25.90
2018-07-06T11:21:59.167Z,27.33
2018-07-06T11:24:27.623Z,23.63
2018-07-06T11:26:55.937Z,23.37
2018-07-06T11:29:24.140Z,22.10
2018-07-06T11:31:52.339Z,23.40
2018-07-06T11:34:20.539Z,20.90
2018-07-06T11:36:48.778Z,19.65
2018-07-06T11:39:17.055Z,20.77
2018-07-06T11:41:45.278Z,20.45
2018-07-06T11:44:13.448Z,19.70
2018-07-06T11:46:41.616Z,18.65
2018-07-06T11:49:09.871Z,17.73
2018-07-06T11:51:38.099Z,19.23
2018-07-06T11:54:06.277Z,18.87
2018-07-06T11:56:49.432Z,18.37
2018-07-06T11:59:18.231Z,16.52
2018-07-06T12:01:46.424Z,14.15
2018-07-06T12:04:14.667Z,16.07
2018-07-06T12:06:42.787Z,16.10
2018-07-06T12:09:10.963Z,15.03
2018-07-06T12:11:39.180Z,16.73
2018-07-06T12:14:07.398Z,16.27
2018-07-06T12:16:35.604Z,18.00
2018-07-06T12:19:03.861Z,14.83
2018-07-06T12:21:32.079Z,15.83
2018-07-06T12:24:00.312Z,13.78
2018-07-06T12:26:28.588Z,13.20
2018-07-06T12:28:56.736Z,13.72
2018-07-06T12:31:24.952Z,15.05
2018-07-06T12:33:53.238Z,12.60
2018-07-06T12:36:21.428Z,14.58
2018-07-06T12:38:49.657Z,8.00
2018-07-06T12:41:17.885Z,6.90
2018-07-06T12:43:46.033Z,7.03
2018-07-06T12:46:14.335Z,6.67
2018-07-06T12:48:42.602Z,6.85
2018-07-06T12:51:10.701Z,7.05
2018-07-06T12:53:38.929Z,7.03
2018-07-06T12:56:07.116Z,7.78
2018-07-06T12:58:35.472Z,7.08
2018-07-06T13:01:03.560Z,6.33
2018-07-06T13:03:31.745Z,5.20
2018-07-06T13:05:59.959Z,5.45
2018-07-06T13:08:28.137Z,4.67
2018-07-06T13:10:56.339Z,5.28
2018-07-06T13:13:24.529Z,4.58
2018-07-06T13:15:52.754Z,4.92
2018-07-06T13:18:21.007Z,4.45
2018-07-06T13:20:49.198Z,4.45
2018-07-06T13:23:17.358Z,5.10
2018-07-06T13:25:45.535Z,4.80
2018-07-06T13:28:13.782Z,5.07
2018-07-06T13:30:41.959Z,4.30
2018-07-06T13:33:10.144Z,4.63
2018-07-06T13:35:38.407Z,4.67
2018-07-06T13:38:06.620Z,4.77
2018-07-06T13:40:36.062Z,4.70
2018-07-06T13:43:04.381Z,4.93
2018-07-06T13:45:32.697Z,4.40
2018-07-06T13:48:00.873Z,4.40
2018-07-06T13:50:29.064Z,4.10
2018-07-06T13:52:57.308Z,4.00
2018-07-06T13:55:26.166Z,4.15
2018-07-06T13:57:54.346Z,4.15
2018-07-06T14:00:22.536Z,4.35
2018-07-06T14:02:50.765Z,3.70
2018-07-06T14:05:19.307Z,3.22
2018-07-06T14:07:47.449Z,3.40
2018-07-06T14:10:15.697Z,3.65
2018-07-06T14:12:44.025Z,3.40
2018-07-06T14:15:12.209Z,3.77
2018-07-06T14:17:40.414Z,3.90
2018-07-06T14:20:08.746Z,3.62
2018-07-06T14:22:36.945Z,3.75
2018-07-06T14:25:05.105Z,4.83
2018-07-06T14:27:33.299Z,4.40
2018-07-06T14:30:01.479Z,6.17
2018-07-06T14:32:29.740Z,5.15
2018-07-06T14:34:57.953Z,5.30
2018-07-06T14:37:26.264Z,5.53
2018-07-06T14:39:54.486Z,5.47
2018-07-06T14:42:22.687Z,5.00
2018-07-06T14:44:50.941Z,4.60
2018-07-06T14:47:19.178Z,4.85
2018-07-06T14:49:51.881Z,5.10
2018-07-06T14:52:20.125Z,4.35
2018-07-06T14:54:48.390Z,4.28
2018-07-06T14:57:16.531Z,4.17
2018-07-06T14:59:44.714Z,4.55
2018-07-06T15:02:12.930Z,4.85
2018-07-06T15:04:46.759Z,4.78
2018-07-06T15:07:15.000Z,3.83
2018-07-06T15:09:43.332Z,3.80
2018-07-06T15:12:11.853Z,4.20
2018-07-06T15:14:40.056Z,4.00
2018-07-06T15:17:08.237Z,4.08
2018-07-06T15:19:36.461Z,3.72
2018-07-06T15:22:04.750Z,3.85
2018-07-06T15:24:33.034Z,3.52
2018-07-06T15:27:01.196Z,3.00
2018-07-06T15:29:29.544Z,2.95
2018-07-06T15:31:57.707Z,2.58
2018-07-06T15:34:26.831Z,2.45
2018-07-06T15:36:55.596Z,2.55
2018-07-06T15:39:23.778Z,2.85
2018-07-06T15:41:52.245Z,2.67
2018-07-06T15:44:20.601Z,2.40
2018-07-06T15:46:49.174Z,3.08
2018-07-06T15:49:17.312Z,2.65
2018-07-06T15:51:45.468Z,2.37
2018-07-06T15:54:13.643Z,2.37
2018-07-06T15:56:41.968Z,2.40
2018-07-06T15:59:10.420Z,2.45
2018-07-06T16:01:38.833Z,2.80
2018-07-06T16:04:06.989Z,2.35
2018-07-06T16:06:35.149Z,2.30
2018-07-06T16:09:03.761Z,2.50
2018-07-06T16:11:31.913Z,2.50
2018-07-06T16:14:00.084Z,2.72
2018-07-06T16:16:28.268Z,1.98
2018-07-06T16:18:56.448Z,2.17
2018-07-06T16:21:24.673Z,2.20
2018-07-06T16:23:52.853Z,2.50
2018-07-06T16:26:21.012Z,2.45
2018-07-06T16:28:49.184Z,2.50
2018-07-06T16:31:17.372Z,2.55
2018-07-06T16:33:45.521Z,2.50
2018-07-06T16:36:13.674Z,2.62
2018-07-06T16:38:41.842Z,2.40
2018-07-06T16:41:10.129Z,2.40
2018-07-06T16:43:38.495Z,2.80
2018-07-06T16:46:06.855Z,2.62
2018-07-06T16:48:35.104Z,2.42
2018-07-06T16:51:03.333Z,2.33
2018-07-06T16:53:31.577Z,2.72
2018-07-06T16:55:59.839Z,2.50
2018-07-06T16:58:28.174Z,2.58
2018-07-06T17:00:56.722Z,2.90
2018-07-06T17:03:24.873Z,2.30
2018-07-06T17:05:53.122Z,2.52
2018-07-06T17:08:21.276Z,2.55
2018-07-06T17:10:49.452Z,2.60
2018-07-06T17:13:17.631Z,2.90
2018-07-06T17:15:45.822Z,2.77
2018-07-06T17:18:13.971Z,2.50
2018-07-06T17:20:42.192Z,2.50
2018-07-06T17:23:10.841Z,2.65
2018-07-06T17:25:38.804Z,2.70
2018-07-06T17:28:07.489Z,2.70
2018-07-06T17:30:35.666Z,2.47
2018-07-06T17:33:03.815Z,2.67
2018-07-06T17:35:31.976Z,2.30
2018-07-06T17:38:00.135Z,2.10
2018-07-06T17:40:28.280Z,2.00
2018-07-06T17:42:56.593Z,1.57
2018-07-06T17:45:24.760Z,1.70
2018-07-06T17:47:52.933Z,1.93
2018-07-06T17:50:21.303Z,1.90
2018-07-06T17:52:49.657Z,2.00
2018-07-06T17:55:18.059Z,1.80
2018-07-06T17:57:46.441Z,2.40
2018-07-06T18:00:14.763Z,2.27
2018-07-06T18:02:42.954Z,2.20
2018-07-06T18:05:11.104Z,2.27
2018-07-06T18:07:39.309Z,2.30
2018-07-06T18:10:07.456Z,2.30
2018-07-06T18:12:35.664Z,2.50
2018-07-06T18:15:03.892Z,2.47
2018-07-06T18:17:32.269Z,2.83
2018-07-06T18:20:00.981Z,2.80
2018-07-06T18:22:29.436Z,2.60
2018-07-06T18:24:57.394Z,3.40
2018-07-06T18:27:25.463Z,3.30
2018-07-06T18:29:53.632Z,2.90
2018-07-06T18:32:21.768Z,3.60
2018-07-06T18:34:50.011Z,3.17
2018-07-06T18:37:19.084Z,3.33
2018-07-06T18:39:47.252Z,3.10
2018-07-06T18:42:15.436Z,3.60
2018-07-06T18:44:43.967Z,3.10
2018-07-06T18:47:12.176Z,3.43
2018-07-06T18:49:40.371Z,3.13
2018-07-06T18:52:11.993Z,3.77
2018-07-06T18:54:52.468Z,3.53
2018-07-06T18:57:20.768Z,3.30
2018-07-06T18:59:48.976Z,3.47
2018-07-06T19:02:17.152Z,3.17
2018-07-06T19:04:45.312Z,3.20
2018-07-06T19:07:13.514Z,3.10
2018-07-06T19:09:41.458Z,3.40
2018-07-06T19:12:09.660Z,3.20
2018-07-06T19:14:37.928Z,2.80
2018-07-06T19:17:05.930Z,3.03
2018-07-06T19:19:34.117Z,3.13
2018-07-06T19:22:02.340Z,3.10
2018-07-06T19:24:30.597Z,3.40
2018-07-06T19:26:58.889Z,3.43
2018-07-06T19:29:27.277Z,3.33
2018-07-06T19:31:55.537Z,3.60
2018-07-06T19:34:23.693Z,3.57
2018-07-06T19:36:51.899Z,3.40
2018-07-06T19:39:20.119Z,3.60
2018-07-06T19:41:48.607Z,3.83
2018-07-06T19:44:16.949Z,4.53
2018-07-06T19:46:46.313Z,5.00
2018-07-06T19:49:14.676Z,5.10
2018-07-06T19:51:47.974Z,5.00
2018-07-06T19:54:16.089Z,5.60
2018-07-06T19:56:44.384Z,6.00
2018-07-06T19:59:12.703Z,6.27
2018-07-06T20:01:40.963Z,5.57
2018-07-06T20:04:09.333Z,7.50
2018-07-06T20:06:37.803Z,6.77
2018-07-06T20:09:06.831Z,7.43
2018-07-06T20:11:35.033Z,8.00
2018-07-06T20:14:03.384Z,6.83
2018-07-06T20:16:31.784Z,7.20
2018-07-06T20:19:00.877Z,7.43
2018-07-06T20:21:29.086Z,7.50
2018-07-06T20:23:57.392Z,7.43
2018-07-06T20:26:26.045Z,7.30
2018-07-06T20:28:55.167Z,7.90
2018-07-06T20:31:25.123Z,7.83
2018-07-06T20:33:53.305Z,7.13
2018-07-06T20:36:21.456Z,7.13
2018-07-06T20:38:49.649Z,7.33
2018-07-06T20:41:17.844Z,7.30
2018-07-06T20:43:45.999Z,7.10
2018-07-06T20:46:14.343Z,7.40
2018-07-06T20:48:42.647Z,7.60
2018-07-06T20:51:10.891Z,7.37
2018-07-06T20:53:39.234Z,7.40
2018-07-06T20:56:07.507Z,7.33
2018-07-06T20:58:35.979Z,7.43
2018-07-06T21:01:04.131Z,7.80
2018-07-06T21:03:32.360Z,7.57
2018-07-06T21:06:00.637Z,7.00
2018-07-06T21:08:28.932Z,7.63
2018-07-06T21:10:56.857Z,6.77
2018-07-06T21:13:25.093Z,6.57
2018-07-06T21:15:53.237Z,6.93
2018-07-06T21:18:21.416Z,6.77
2018-07-06T21:20:49.429Z,6.60
2018-07-06T21:23:17.571Z,7.60
2018-07-06T21:25:45.783Z,7.40
2018-07-06T21:28:13.976Z,7.03
2018-07-06T21:30:42.225Z,7.57
2018-07-06T21:33:10.563Z,7.70
2018-07-06T21:35:38.768Z,7.57
2018-07-06T21:38:07.100Z,7.67
2018-07-06T21:40:35.376Z,7.30
2018-07-06T21:43:03.626Z,7.07
2018-07-06T21:45:31.790Z,7.40
2018-07-06T21:48:00.043Z,7.63
2018-07-06T21:50:28.348Z,7.30
2018-07-06T21:52:56.547Z,7.27
2018-07-06T21:55:24.891Z,6.17
2018-07-06T21:57:53.216Z,7.27
2018-07-06T22:00:32.111Z,7.77
2018-07-06T22:03:00.434Z,6.73
2018-07-06T22:05:28.648Z,7.20
2018-07-06T22:07:56.788Z,6.97
2018-07-06T22:10:24.984Z,7.63
2018-07-06T22:12:53.169Z,6.40
2018-07-06T22:15:21.346Z,6.90
2018-07-06T22:17:49.528Z,6.67
2018-07-06T22:20:17.742Z,6.67
2018-07-06T22:22:45.882Z,6.70
2018-07-06T22:25:14.316Z,6.57
2018-07-06T22:27:42.592Z,7.07
2018-07-06T22:30:10.748Z,6.37
2018-07-06T22:32:38.937Z,6.83
2018-07-06T22:35:07.243Z,7.07
2018-07-06T22:37:35.387Z,6.40
2018-07-06T22:40:03.601Z,6.67
2018-07-06T22:42:31.756Z,6.53
2018-07-06T22:44:59.980Z,5.93
2018-07-06T22:47:28.308Z,6.57
2018-07-06T22:49:56.477Z,6.00
2018-07-06T22:52:24.401Z,5.97
2018-07-06T22:54:52.565Z,6.07
2018-07-06T22:57:20.720Z,6.07
2018-07-06T22:59:48.907Z,6.13
2018-07-06T23:02:17.156Z,5.70
2018-07-06T23:04:45.332Z,5.97
2018-07-06T23:07:13.509Z,5.60
2018-07-06T23:09:41.752Z,5.97
2018-07-06T23:12:09.929Z,6.50
2018-07-06T23:14:38.118Z,6.70
2018-07-06T23:17:06.276Z,6.50
2018-07-06T23:19:34.452Z,5.93
2018-07-06T23:22:02.653Z,5.80
2018-07-06T23:24:30.837Z,6.07
2018-07-06T23:26:59.070Z,6.53
2018-07-06T23:29:27.226Z,6.33
2018-07-06T23:31:55.384Z,6.83
2018-07-06T23:34:23.553Z,6.17
2018-07-06T23:36:51.737Z,6.80
2018-07-06T23:39:19.957Z,7.27
2018-07-06T23:41:48.403Z,6.70
2018-07-06T23:44:16.573Z,7.30
2018-07-06T23:46:44.744Z,6.83
2018-07-06T23:49:12.932Z,6.73
2018-07-06T23:51:41.085Z,6.70
2018-07-06T23:54:09.228Z,7.57
2018-07-06T23:56:37.411Z,7.80
2018-07-06T23:59:05.342Z,7.47
